FYWB

Walvis Bay Airport

Walvis Bay, Namibia
METAR FYWB 221800Z AUTO 26004KT //// // ////// 14/11 Q1016
Observed Flight Rules
Apr-22 @ 18:00 UTC (14 minutes ago)
Wind
260° at 4 knots
Temperatures Readings
Current 14°C / 57°F
Dewpoint 11°C / 52°F
Humidity 82%
Altimeter 30" Hg
Pressure 1016 hPa
Elevation 46
METAR FYWB 221800Z AUTO 26004KT //// // ////// 14/11 Q1016
Observed Flight Rules
Apr-22 @ 18:00 UTC
(14 minutes ago)
Wind
260° at 4 knots
Temperature Dewpoint
14°C / 57°F 11°C / 52°F
Humidity Altimeter Pressure
82% 30" Hg 1016 hPa